Time;durP1;ratioP1;P1;durP2;ratioP2;P2;SDS_P1;SDS_P2;PMS_P1;PMS_P2;Temp;Humidity;BMP_temperature;BMP_pressure;BME280_temperature;BME280_humidity;BME280_pressure;Samples;Min_cycle;Max_cycle;Signal;HPM_P1;HPM_P2
2022/07/24 00:02:01;;;;;;;;;;;15.80;99.90;;;;;;5138159;27;19946;-69
2022/07/24 00:04:26;;;;;;;;;;;15.80;99.90;;;;;;5156383;27;19987;-67
2022/07/24 00:06:52;;;;;;;;;;;15.80;99.90;;;;;;5156509;27;19931;-68
2022/07/24 00:09:18;;;;;;;;;;;15.80;99.90;;;;;;5156190;27;19930;-68
2022/07/24 00:11:44;;;;;;;;;;;15.80;99.90;;;;;;5138063;27;19949;-68
2022/07/24 00:14:09;;;;;;;;;;;15.80;99.90;;;;;;5156116;27;19924;-68
2022/07/24 00:16:35;;;;;;;;;;;15.80;99.90;;;;;;5137833;27;19927;-68
2022/07/24 00:19:00;;;;;;;;;;;15.80;99.90;;;;;;5156269;27;20348;-69
2022/07/24 00:21:26;;;;;;;;;;;15.80;99.90;;;;;;5137963;27;19975;-69
2022/07/24 00:23:51;;;;;;;;;;;15.80;99.90;;;;;;5155960;27;19923;-69
2022/07/24 00:26:17;;;;;;;;;;;15.80;99.90;;;;;;5155795;27;19930;-68
2022/07/24 00:28:43;;;;;;;;;;;15.80;99.90;;;;;;5155840;27;19927;-69
2022/07/24 00:31:08;;;;;;;;;;;15.80;99.90;;;;;;5172373;27;20398;-68
2022/07/24 00:33:34;;;;;;;;;;;15.70;99.90;;;;;;5156061;27;20005;-69
2022/07/24 00:35:59;;;;;;;;;;;15.70;99.90;;;;;;5155943;27;20266;-68
2022/07/24 00:38:25;;;;;;;;;;;15.70;99.90;;;;;;5155763;27;19923;-69
2022/07/24 00:40:51;;;;;;;;;;;15.60;99.90;;;;;;5136813;27;19930;-68
2022/07/24 00:43:16;;;;;;;;;;;15.60;99.90;;;;;;5155647;27;19923;-68
2022/07/24 00:45:43;;;;;;;;;;;15.60;99.90;;;;;;5155579;27;20342;-67
2022/07/24 00:48:08;;;;;;;;;;;15.60;99.90;;;;;;5155557;27;20297;-67
2022/07/24 00:50:34;;;;;;;;;;;15.50;99.90;;;;;;5137472;27;19923;-68
2022/07/24 00:53:00;;;;;;;;;;;15.50;99.90;;;;;;5155612;27;19975;-70
2022/07/24 00:55:26;;;;;;;;;;;15.50;99.90;;;;;;5154572;27;20297;-69
2022/07/24 00:57:51;;;;;;;;;;;15.50;99.90;;;;;;5155493;27;20343;-67
2022/07/24 01:00:19;;;;;;;;;;;15.50;99.90;;;;;;5171982;27;19930;-68
2022/07/24 01:02:44;;;;;;;;;;;15.50;99.90;;;;;;5137189;27;19923;-69
2022/07/24 01:05:10;;;;;;;;;;;15.40;99.90;;;;;;5155254;27;19923;-69
2022/07/24 01:07:36;;;;;;;;;;;15.40;99.90;;;;;;5155517;27;19923;-68
2022/07/24 01:10:02;;;;;;;;;;;15.30;99.90;;;;;;5155315;27;19923;-69
2022/07/24 01:12:27;;;;;;;;;;;15.40;99.90;;;;;;5137195;27;19923;-69
2022/07/24 01:14:53;;;;;;;;;;;15.40;99.90;;;;;;5120039;27;20018;-69
2022/07/24 01:17:19;;;;;;;;;;;15.30;99.90;;;;;;5153938;27;20369;-68
2022/07/24 01:19:45;;;;;;;;;;;15.40;99.90;;;;;;5155429;27;19931;-69
2022/07/24 01:22:11;;;;;;;;;;;15.00;99.90;;;;;;5155397;27;19932;-69
2022/07/24 01:24:36;;;;;;;;;;;15.30;99.90;;;;;;5154791;27;20382;-67
2022/07/24 01:27:02;;;;;;;;;;;15.30;99.90;;;;;;5136864;27;19923;-68
2022/07/24 01:29:27;;;;;;;;;;;15.30;99.90;;;;;;5155135;27;19960;-69
2022/07/24 01:31:53;;;;;;;;;;;15.20;99.90;;;;;;5155390;27;20384;-68
2022/07/24 01:34:18;;;;;;;;;;;15.30;99.90;;;;;;5170779;27;20290;-68
2022/07/24 01:36:45;;;;;;;;;;;15.20;99.90;;;;;;5155205;27;19927;-68
2022/07/24 01:39:11;;;;;;;;;;;15.20;99.90;;;;;;5155141;27;20344;-68
2022/07/24 01:41:36;;;;;;;;;;;15.20;99.90;;;;;;5136630;27;19967;-68
2022/07/24 01:44:02;;;;;;;;;;;15.20;99.90;;;;;;5155077;27;19923;-68
2022/07/24 01:46:28;;;;;;;;;;;14.80;99.90;;;;;;5154992;27;19968;-68
2022/07/24 01:48:53;;;;;;;;;;;15.20;99.90;;;;;;5154902;27;19931;-69
2022/07/24 01:51:19;;;;;;;;;;;15.20;99.90;;;;;;5155062;27;19931;-68
2022/07/24 01:53:44;;;;;;;;;;;15.10;99.90;;;;;;5171280;27;19923;-69
2022/07/24 01:56:10;;;;;;;;;;;15.10;99.90;;;;;;5154922;27;19923;-68
2022/07/24 01:58:35;;;;;;;;;;;15.10;99.90;;;;;;5171336;27;19973;-68
2022/07/24 02:01:01;;;;;;;;;;;15.10;99.90;;;;;;5154807;27;19930;-67
2022/07/24 02:03:26;;;;;;;;;;;15.10;99.90;;;;;;5154753;27;19930;-68
2022/07/24 02:05:52;;;;;;;;;;;15.10;99.90;;;;;;5154909;27;20397;-69
2022/07/24 02:08:18;;;;;;;;;;;15.10;99.90;;;;;;5158899;27;19923;-69
2022/07/24 02:10:43;;;;;;;;;;;15.10;99.90;;;;;;5158707;27;20046;-68
2022/07/24 02:13:09;;;;;;;;;;;15.00;99.90;;;;;;5158631;27;20373;-69
2022/07/24 02:15:34;;;;;;;;;;;15.00;99.90;;;;;;5158559;27;19986;-69
2022/07/24 02:18:01;;;;;;;;;;;15.10;99.90;;;;;;5158531;27;19922;-67
2022/07/24 02:20:27;;;;;;;;;;;15.10;99.90;;;;;;5158328;27;19923;-68
2022/07/24 02:22:53;;;;;;;;;;;15.10;99.90;;;;;;5139814;27;20251;-69
2022/07/24 02:25:19;;;;;;;;;;;15.10;99.90;;;;;;5139593;27;19930;-69
2022/07/24 02:27:44;;;;;;;;;;;15.10;99.90;;;;;;5139939;27;19931;-69
2022/07/24 02:30:12;;;;;;;;;;;15.00;99.90;;;;;;5140099;27;19923;-69
2022/07/24 02:32:37;;;;;;;;;;;15.00;99.90;;;;;;5158085;27;19923;-67
2022/07/24 02:35:03;;;;;;;;;;;15.00;99.90;;;;;;5158028;27;19934;-68
2022/07/24 02:37:29;;;;;;;;;;;15.10;99.90;;;;;;5158078;27;20018;-68
2022/07/24 02:39:54;;;;;;;;;;;15.00;99.90;;;;;;5158064;27;20381;-68
2022/07/24 02:42:20;;;;;;;;;;;15.00;99.90;;;;;;5158093;27;19927;-67
2022/07/24 02:44:45;;;;;;;;;;;15.00;99.90;;;;;;5174258;27;19923;-69
2022/07/24 02:47:11;;;;;;;;;;;14.40;99.90;;;;;;5157939;27;19931;-67
2022/07/24 02:49:36;;;;;;;;;;;14.90;99.90;;;;;;5157833;27;19927;-69
2022/07/24 02:52:03;;;;;;;;;;;15.00;99.90;;;;;;5157681;27;19975;-67
2022/07/24 02:54:28;;;;;;;;;;;15.00;99.90;;;;;;5157848;27;20334;-68
2022/07/24 02:56:54;;;;;;;;;;;15.00;99.90;;;;;;5174264;27;20010;-68
2022/07/24 02:59:19;;;;;;;;;;;15.00;99.90;;;;;;5122412;27;20025;-68
2022/07/24 03:01:45;;;;;;;;;;;15.00;99.90;;;;;;5157719;27;19923;-69
2022/07/24 03:04:10;;;;;;;;;;;15.00;99.90;;;;;;5157482;27;19923;-68
2022/07/24 03:06:36;;;;;;;;;;;15.00;99.90;;;;;;5157384;27;19930;-69
2022/07/24 03:09:02;;;;;;;;;;;15.00;99.90;;;;;;5139231;27;19927;-69
2022/07/24 03:11:27;;;;;;;;;;;15.70;99.90;;;;;;5157492;27;19923;-67
2022/07/24 03:13:53;;;;;;;;;;;15.00;99.90;;;;;;5157411;27;20331;-68
2022/07/24 03:16:19;;;;;;;;;;;15.00;99.90;;;;;;5157371;27;19923;-68
2022/07/24 03:18:50;;;;;;;;;;;15.10;99.90;;;;;;5137785;27;20017;-68
2022/07/24 03:21:16;;;;;;;;;;;15.00;99.90;;;;;;5138937;27;19923;-68
2022/07/24 03:23:42;;;;;;;;;;;15.00;99.90;;;;;;5138904;27;19930;-70
2022/07/24 03:26:08;;;;;;;;;;;15.00;99.90;;;;;;5156854;27;19923;-69
2022/07/24 03:28:34;;;;;;;;;;;15.00;99.90;;;;;;5138897;27;19931;-67
2022/07/24 03:31:00;;;;;;;;;;;15.00;99.90;;;;;;5157017;27;19975;-69
2022/07/24 03:33:26;;;;;;;;;;;15.00;99.90;;;;;;5138728;27;20013;-68
2022/07/24 03:35:51;;;;;;;;;;;15.00;99.90;;;;;;5138730;27;19930;-69
2022/07/24 03:38:17;;;;;;;;;;;15.00;99.90;;;;;;5138549;27;20025;-69
2022/07/24 03:40:42;;;;;;;;;;;14.80;99.90;;;;;;5156965;27;19938;-69
2022/07/24 03:43:08;;;;;;;;;;;15.00;99.90;;;;;;5157109;27;20293;-68
2022/07/24 03:45:33;;;;;;;;;;;15.00;99.90;;;;;;5138218;27;19930;-68
2022/07/24 03:47:59;;;;;;;;;;;14.70;99.90;;;;;;5138521;27;19975;-69
2022/07/24 03:50:25;;;;;;;;;;;15.00;99.90;;;;;;5156643;27;19968;-68
2022/07/24 03:52:50;;;;;;;;;;;15.00;99.90;;;;;;5156517;27;19931;-68
2022/07/24 03:55:16;;;;;;;;;;;15.00;99.90;;;;;;5138451;27;19923;-68
2022/07/24 03:57:41;;;;;;;;;;;15.00;99.90;;;;;;5156681;27;19923;-68
2022/07/24 04:00:08;;;;;;;;;;;15.00;99.90;;;;;;5156571;27;19930;-68
2022/07/24 04:02:34;;;;;;;;;;;15.00;99.90;;;;;;5138151;27;19958;-68
2022/07/24 04:04:59;;;;;;;;;;;15.00;99.90;;;;;;5137425;27;19985;-67
2022/07/24 04:07:25;;;;;;;;;;;15.00;99.90;;;;;;5156318;27;19923;-68
2022/07/24 04:09:50;;;;;;;;;;;15.00;99.90;;;;;;5156379;27;19924;-68
2022/07/24 04:12:16;;;;;;;;;;;15.20;99.90;;;;;;5156216;27;20060;-69
2022/07/24 04:14:41;;;;;;;;;;;15.00;99.90;;;;;;5156296;27;19976;-69
2022/07/24 04:17:07;;;;;;;;;;;15.00;99.90;;;;;;5138048;27;19946;-69
2022/07/24 04:19:33;;;;;;;;;;;15.10;99.90;;;;;;5137925;27;20301;-68
2022/07/24 04:21:58;;;;;;;;;;;15.10;99.90;;;;;;5156100;27;20025;-69
2022/07/24 04:24:24;;;;;;;;;;;15.10;99.90;;;;;;5155860;27;19923;-69
2022/07/24 04:26:49;;;;;;;;;;;15.10;99.90;;;;;;5155982;27;20334;-69
2022/07/24 04:29:15;;;;;;;;;;;15.10;99.90;;;;;;5137614;27;19923;-69
2022/07/24 04:31:40;;;;;;;;;;;15.10;99.90;;;;;;5156117;27;19929;-68
2022/07/24 04:34:06;;;;;;;;;;;15.10;99.90;;;;;;5155901;27;20449;-68
2022/07/24 04:36:31;;;;;;;;;;;15.10;99.90;;;;;;5155924;27;19981;-69
2022/07/24 04:38:57;;;;;;;;;;;15.10;99.90;;;;;;5155721;27;19923;-68
2022/07/24 04:41:23;;;;;;;;;;;15.10;99.90;;;;;;5155933;27;19926;-68
2022/07/24 04:43:49;;;;;;;;;;;15.20;99.90;;;;;;5155784;27;19948;-67
2022/07/24 04:46:15;;;;;;;;;;;15.20;99.90;;;;;;5155753;27;20394;-69
2022/07/24 04:48:41;;;;;;;;;;;15.20;99.90;;;;;;5137498;27;19930;-68
2022/07/24 04:51:06;;;;;;;;;;;15.20;99.90;;;;;;5137364;27;20368;-68
2022/07/24 04:53:32;;;;;;;;;;;15.20;99.90;;;;;;5155571;27;20041;-70
2022/07/24 04:55:57;;;;;;;;;;;15.20;99.90;;;;;;5155410;27;19930;-69
2022/07/24 04:58:23;;;;;;;;;;;15.30;99.90;;;;;;5155612;27;20297;-68
2022/07/24 05:00:49;;;;;;;;;;;15.30;99.90;;;;;;5137255;27;19949;-68
2022/07/24 05:03:14;;;;;;;;;;;15.30;99.90;;;;;;5171887;27;19930;-67
2022/07/24 05:05:40;;;;;;;;;;;15.30;99.90;;;;;;5155290;27;19923;-68
2022/07/24 05:08:06;;;;;;;;;;;15.40;99.90;;;;;;5155309;27;19923;-69
2022/07/24 05:10:31;;;;;;;;;;;14.20;99.90;;;;;;5155141;27;20001;-68
2022/07/24 05:12:57;;;;;;;;;;;15.40;99.90;;;;;;5155440;27;19975;-68
2022/07/24 05:15:22;;;;;;;;;;;15.40;99.90;;;;;;5155475;27;20404;-69
2022/07/24 05:17:48;;;;;;;;;;;15.50;99.90;;;;;;5137130;27;20020;-68
2022/07/24 05:20:13;;;;;;;;;;;15.50;99.90;;;;;;5155288;27;20373;-69
2022/07/24 05:22:39;;;;;;;;;;;15.80;99.90;;;;;;5155204;27;19930;-67
2022/07/24 05:25:05;;;;;;;;;;;15.60;99.90;;;;;;5154756;27;19934;-69
2022/07/24 05:27:31;;;;;;;;;;;15.60;99.90;;;;;;5154913;27;19930;-69
2022/07/24 05:29:56;;;;;;;;;;;15.70;99.90;;;;;;5155244;27;19923;-69
2022/07/24 05:32:22;;;;;;;;;;;15.70;99.90;;;;;;5155225;27;19935;-68
2022/07/24 05:34:47;;;;;;;;;;;15.70;99.90;;;;;;5155299;27;20046;-69
2022/07/24 05:37:13;;;;;;;;;;;15.80;99.90;;;;;;5155045;27;20385;-67
2022/07/24 05:39:38;;;;;;;;;;;15.80;99.90;;;;;;5155012;27;19929;-67
2022/07/24 05:42:04;;;;;;;;;;;15.90;99.90;;;;;;5157164;27;19998;-68
2022/07/24 05:44:30;;;;;;;;;;;15.90;99.90;;;;;;5159170;27;19923;-68
2022/07/24 05:46:55;;;;;;;;;;;15.90;99.90;;;;;;5159184;27;19930;-69
2022/07/24 05:49:21;;;;;;;;;;;16.00;99.90;;;;;;5159115;27;19930;-68
2022/07/24 05:51:46;;;;;;;;;;;16.10;99.90;;;;;;5158989;27;19980;-67
2022/07/24 05:54:12;;;;;;;;;;;16.20;99.90;;;;;;5159003;27;20396;-68
2022/07/24 05:56:37;;;;;;;;;;;16.20;99.90;;;;;;5158701;27;20400;-69
2022/07/24 05:59:03;;;;;;;;;;;16.30;99.90;;;;;;5159020;27;20296;-70
2022/07/24 06:01:28;;;;;;;;;;;16.30;99.90;;;;;;5158768;27;20403;-69
2022/07/24 06:03:54;;;;;;;;;;;16.40;99.90;;;;;;5158649;27;19923;-69
2022/07/24 06:06:20;;;;;;;;;;;16.40;99.90;;;;;;5158682;27;19974;-68
2022/07/24 06:08:45;;;;;;;;;;;16.50;99.90;;;;;;5158643;27;19970;-68
2022/07/24 06:11:11;;;;;;;;;;;16.50;99.90;;;;;;5158545;27;19923;-69
2022/07/24 06:13:37;;;;;;;;;;;16.50;99.90;;;;;;5158453;27;19985;-70
2022/07/24 06:16:02;;;;;;;;;;;16.60;99.90;;;;;;5158692;27;19930;-68
2022/07/24 06:18:28;;;;;;;;;;;16.60;99.90;;;;;;5158592;27;20343;-69
2022/07/24 06:20:54;;;;;;;;;;;16.70;99.90;;;;;;5158430;27;19935;-68
2022/07/24 06:23:19;;;;;;;;;;;16.80;99.90;;;;;;5140138;27;20006;-70
2022/07/24 06:25:45;;;;;;;;;;;16.90;99.90;;;;;;5156721;27;19968;-70
2022/07/24 06:28:10;;;;;;;;;;;17.20;99.90;;;;;;5157656;27;19965;-69
2022/07/24 06:30:36;;;;;;;;;;;17.00;99.90;;;;;;5158241;27;19923;-70
2022/07/24 06:33:01;;;;;;;;;;;17.20;99.90;;;;;;5158327;27;19923;-68
2022/07/24 06:35:27;;;;;;;;;;;17.20;99.90;;;;;;5173818;27;19930;-68
2022/07/24 06:37:53;;;;;;;;;;;17.30;99.90;;;;;;5158152;27;19927;-67
2022/07/24 06:40:19;;;;;;;;;;;16.50;99.90;;;;;;5173351;27;19967;-70
2022/07/24 06:42:46;;;;;;;;;;;17.40;99.90;;;;;;5157912;27;20278;-68
2022/07/24 06:45:12;;;;;;;;;;;17.60;99.90;;;;;;5174354;27;19923;-69
2022/07/24 06:47:38;;;;;;;;;;;17.70;99.90;;;;;;5158059;27;19923;-69
2022/07/24 06:50:04;;;;;;;;;;;17.90;99.90;;;;;;5158081;27;19927;-69
2022/07/24 06:52:29;;;;;;;;;;;17.90;99.90;;;;;;5157821;27;19967;-68
2022/07/24 06:54:55;;;;;;;;;;;17.90;99.90;;;;;;5157695;27;19926;-68
2022/07/24 06:57:21;;;;;;;;;;;18.10;99.90;;;;;;5157740;27;20005;-70
2022/07/24 06:59:46;;;;;;;;;;;18.10;99.90;;;;;;5157621;27;19923;-69
2022/07/24 07:02:12;;;;;;;;;;;18.30;99.90;;;;;;5157717;27;19963;-69
2022/07/24 07:04:37;;;;;;;;;;;18.30;99.90;;;;;;5139377;27;20334;-67
2022/07/24 07:07:03;;;;;;;;;;;18.50;99.90;;;;;;5157663;27;19950;-68
2022/07/24 07:09:29;;;;;;;;;;;18.60;99.90;;;;;;5157423;27;19931;-69
2022/07/24 07:11:54;;;;;;;;;;;18.70;99.90;;;;;;5157457;27;19975;-68
2022/07/24 07:14:20;;;;;;;;;;;18.70;99.90;;;;;;5157222;27;19923;-68
2022/07/24 07:16:45;;;;;;;;;;;18.30;99.90;;;;;;5157545;27;19927;-68
2022/07/24 07:19:11;;;;;;;;;;;18.90;99.90;;;;;;5157288;27;20301;-68
2022/07/24 07:21:37;;;;;;;;;;;19.00;99.90;;;;;;5138917;27;19923;-69
2022/07/24 07:24:03;;;;;;;;;;;19.00;99.90;;;;;;5157054;27;19927;-68
2022/07/24 07:26:29;;;;;;;;;;;19.10;99.90;;;;;;5156822;27;19978;-68
2022/07/24 07:28:55;;;;;;;;;;;19.20;99.90;;;;;;5156931;27;20029;-70
2022/07/24 07:31:21;;;;;;;;;;;19.20;99.90;;;;;;5156738;27;20296;-69
2022/07/24 07:33:47;;;;;;;;;;;19.20;99.90;;;;;;5157196;27;19930;-71
2022/07/24 07:36:12;;;;;;;;;;;19.30;99.90;;;;;;5151783;27;20014;-72
2022/07/24 07:38:38;;;;;;;;;;;19.40;99.90;;;;;;5154939;27;19923;-71
2022/07/24 07:41:04;;;;;;;;;;;19.50;99.90;;;;;;5135988;27;19972;-69
2022/07/24 07:43:30;;;;;;;;;;;19.50;99.90;;;;;;5156814;27;19930;-71
2022/07/24 07:45:55;;;;;;;;;;;19.50;99.90;;;;;;5155592;27;20002;-69
2022/07/24 07:48:21;;;;;;;;;;;19.60;99.90;;;;;;5170395;27;19938;-70
2022/07/24 07:50:46;;;;;;;;;;;19.60;99.90;;;;;;5155366;27;20017;-70
2022/07/24 07:53:12;;;;;;;;;;;19.70;99.90;;;;;;5139581;27;19923;-70
2022/07/24 07:55:38;;;;;;;;;;;19.70;99.90;;;;;;5155146;27;19923;-69
2022/07/24 07:58:03;;;;;;;;;;;19.80;99.90;;;;;;5135670;27;20006;-71
2022/07/24 08:00:29;;;;;;;;;;;19.90;99.90;;;;;;5146030;27;19923;-69
2022/07/24 08:02:54;;;;;;;;;;;19.90;99.90;;;;;;5155912;27;19962;-71
2022/07/24 08:05:20;;;;;;;;;;;20.00;99.90;;;;;;5137551;27;19966;-70
2022/07/24 08:07:45;;;;;;;;;;;20.00;99.90;;;;;;5156422;27;19923;-70
2022/07/24 08:10:11;;;;;;;;;;;20.10;99.90;;;;;;5136205;27;19930;-69
2022/07/24 08:12:37;;;;;;;;;;;20.20;99.90;;;;;;5156264;27;20006;-69
2022/07/24 08:15:03;;;;;;;;;;;20.30;99.90;;;;;;5156133;27;20434;-68
2022/07/24 08:17:29;;;;;;;;;;;20.40;99.90;;;;;;5155347;27;19931;-70
2022/07/24 08:19:54;;;;;;;;;;;20.40;99.90;;;;;;5156486;27;19923;-70
2022/07/24 08:22:20;;;;;;;;;;;20.50;99.90;;;;;;5136366;27;20009;-69
2022/07/24 08:24:45;;;;;;;;;;;20.60;99.90;;;;;;5171462;27;19966;-70
2022/07/24 08:27:11;;;;;;;;;;;20.60;99.90;;;;;;5155871;27;20327;-69
2022/07/24 08:29:36;;;;;;;;;;;20.70;99.90;;;;;;5155970;27;19923;-69
2022/07/24 08:32:02;;;;;;;;;;;20.80;99.90;;;;;;5152610;27;19989;-69
2022/07/24 08:34:27;;;;;;;;;;;20.90;99.90;;;;;;5156039;27;19983;-70
2022/07/24 08:36:53;;;;;;;;;;;20.90;99.90;;;;;;5137596;27;19927;-69
2022/07/24 08:39:19;;;;;;;;;;;21.00;99.90;;;;;;5155888;27;20025;-70
2022/07/24 08:41:44;;;;;;;;;;;21.00;99.90;;;;;;5141635;27;19946;-69
2022/07/24 08:44:10;;;;;;;;;;;21.10;99.90;;;;;;5135088;27;19924;-70
2022/07/24 08:46:37;;;;;;;;;;;21.20;99.90;;;;;;5134799;27;19923;-71
2022/07/24 08:49:03;;;;;;;;;;;21.20;99.90;;;;;;5134737;27;19977;-70
2022/07/24 08:51:33;;;;;;;;;;;21.30;99.90;;;;;;5151079;27;19928;-69
2022/07/24 08:53:59;;;;;;;;;;;21.40;99.90;;;;;;5135009;27;19968;-71
2022/07/24 08:56:25;;;;;;;;;;;21.50;99.90;;;;;;5151296;27;19923;-69
2022/07/24 08:58:50;;;;;;;;;;;21.50;99.90;;;;;;5116740;27;19946;-68
2022/07/24 09:01:16;;;;;;;;;;;21.60;99.90;;;;;;5134743;27;20354;-69
2022/07/24 09:03:43;;;;;;;;;;;21.70;99.90;;;;;;5116666;28;20433;-69
2022/07/24 09:06:10;;;;;;;;;;;21.80;99.90;;;;;;5134764;27;20022;-70
2022/07/24 09:08:36;;;;;;;;;;;21.80;99.90;;;;;;5134822;27;19923;-70
2022/07/24 09:11:09;;;;;;;;;;;21.40;99.90;;;;;;5116292;28;19927;-69
2022/07/24 09:16:36;;;;;;;;;;;22.10;99.90;;;;;;5056120;28;20375;-71
2022/07/24 09:19:07;;;;;;;;;;;22.20;99.90;;;;;;5075448;28;19924;-69
2022/07/24 09:21:34;;;;;;;;;;;22.20;99.90;;;;;;5092759;28;20409;-69
2022/07/24 09:24:02;;;;;;;;;;;22.30;99.90;;;;;;5058720;28;19924;-69
2022/07/24 09:26:46;;;;;;;;;;;22.40;99.90;;;;;;5075238;28;20023;-69
2022/07/24 09:29:12;;;;;;;;;;;22.40;99.90;;;;;;5075368;28;19931;-71
2022/07/24 09:31:58;;;;;;;;;;;22.40;99.90;;;;;;5075157;28;19971;-71
2022/07/24 09:34:24;;;;;;;;;;;22.40;99.90;;;;;;5058819;28;19929;-70
2022/07/24 09:37:19;;;;;;;;;;;22.50;99.90;;;;;;5075131;28;19924;-70
2022/07/24 09:39:44;;;;;;;;;;;22.50;99.90;;;;;;5015226;28;19925;-70
2022/07/24 09:42:10;;;;;;;;;;;22.40;99.90;;;;;;5015496;28;20435;-69
2022/07/24 09:44:36;;;;;;;;;;;22.50;99.90;;;;;;5015179;28;19929;-69
2022/07/24 09:47:06;;;;;;;;;;;22.50;99.90;;;;;;5015296;28;19926;-70
2022/07/24 09:49:32;;;;;;;;;;;22.50;99.90;;;;;;5018003;28;19926;-69
2022/07/24 09:52:13;;;;;;;;;;;22.50;99.90;;;;;;5054884;28;20418;-71
2022/07/24 09:54:46;;;;;;;;;;;22.50;99.90;;;;;;5054856;28;19925;-69
2022/07/24 09:57:15;;;;;;;;;;;22.60;99.90;;;;;;5054739;28;20493;-70
2022/07/24 09:59:41;;;;;;;;;;;22.70;99.90;;;;;;5054804;28;20027;-70
2022/07/24 10:02:07;;;;;;;;;;;22.80;99.90;;;;;;5054513;28;19972;-69
2022/07/24 10:04:34;;;;;;;;;;;22.90;99.90;;;;;;5054036;28;19925;-69
2022/07/24 10:07:02;;;;;;;;;;;23.10;99.90;;;;;;5038012;28;19925;-70
2022/07/24 10:09:28;;;;;;;;;;;23.20;99.90;;;;;;5054508;28;20489;-69
2022/07/24 10:11:56;;;;;;;;;;;23.30;99.90;;;;;;5054471;28;19929;-69
2022/07/24 10:14:23;;;;;;;;;;;23.40;99.90;;;;;;5054526;28;20020;-70
2022/07/24 10:16:54;;;;;;;;;;;23.40;99.90;;;;;;5120140;27;19968;-71
2022/07/24 10:19:25;;;;;;;;;;;23.40;99.90;;;;;;5119672;27;19930;-69
2022/07/24 10:21:54;;;;;;;;;;;23.40;99.90;;;;;;5137890;27;19924;-71
2022/07/24 10:24:34;;;;;;;;;;;23.40;99.90;;;;;;5116063;28;19947;-69
2022/07/24 10:27:02;;;;;;;;;;;23.50;99.90;;;;;;5116507;28;19931;-71
2022/07/24 10:29:28;;;;;;;;;;;23.50;99.90;;;;;;5117035;28;20053;-69
2022/07/24 10:31:55;;;;;;;;;;;23.50;99.90;;;;;;5115623;28;19980;-70
2022/07/24 10:34:23;;;;;;;;;;;23.60;99.90;;;;;;5117060;28;19924;-69
2022/07/24 10:37:04;;;;;;;;;;;23.60;99.90;;;;;;5116987;28;19931;-70
2022/07/24 10:39:53;;;;;;;;;;;23.60;99.90;;;;;;5116880;28;19967;-70
2022/07/24 10:42:18;;;;;;;;;;;23.70;99.90;;;;;;5073919;28;19925;-71
2022/07/24 10:44:44;;;;;;;;;;;23.70;99.90;;;;;;5073859;28;19932;-70
2022/07/24 10:47:16;;;;;;;;;;;23.70;99.90;;;;;;5073902;28;20319;-69
2022/07/24 10:49:43;;;;;;;;;;;23.70;99.90;;;;;;5073857;28;19930;-71
2022/07/24 10:52:29;;;;;;;;;;;24.00;99.90;;;;;;5073872;28;20327;-70
2022/07/24 10:55:13;;;;;;;;;;;23.70;99.90;;;;;;5072968;28;19928;-69
2022/07/24 10:58:04;;;;;;;;;;;23.80;99.90;;;;;;5057185;28;20017;-70
2022/07/24 11:00:35;;;;;;;;;;;23.80;99.90;;;;;;5069803;28;19982;-69
2022/07/24 11:03:00;;;;;;;;;;;23.80;99.90;;;;;;5073423;28;19925;-69
2022/07/24 11:05:26;;;;;;;;;;;23.90;99.90;;;;;;5073489;28;19924;-70
2022/07/24 11:08:10;;;;;;;;;;;23.90;99.90;;;;;;5073583;28;20019;-69
2022/07/24 11:10:47;;;;;;;;;;;23.90;99.90;;;;;;5073402;28;20306;-70
2022/07/24 11:13:31;;;;;;;;;;;24.00;99.90;;;;;;5073409;28;20435;-70
2022/07/24 11:16:23;;;;;;;;;;;24.00;99.90;;;;;;5073359;28;20394;-71
2022/07/24 11:18:59;;;;;;;;;;;24.10;99.90;;;;;;5082003;28;19930;-71
2022/07/24 11:21:33;;;;;;;;;;;24.10;99.90;;;;;;5116169;28;20031;-70
2022/07/24 11:24:24;;;;;;;;;;;24.10;99.90;;;;;;5119915;27;20018;-71
2022/07/24 11:26:54;;;;;;;;;;;24.10;99.90;;;;;;5136329;27;19924;-69
2022/07/24 11:29:32;;;;;;;;;;;24.10;99.90;;;;;;5118422;27;20016;-69
2022/07/24 11:31:59;;;;;;;;;;;24.20;99.90;;;;;;5136589;27;20014;-71
2022/07/24 11:34:25;;;;;;;;;;;24.20;99.90;;;;;;5136285;27;19976;-70
2022/07/24 11:36:52;;;;;;;;;;;24.20;99.90;;;;;;5136146;27;19930;-70
2022/07/24 11:39:18;;;;;;;;;;;24.40;99.90;;;;;;5117337;27;19924;-70
2022/07/24 11:41:49;;;;;;;;;;;24.40;99.90;;;;;;5152695;27;19935;-70
2022/07/24 11:44:21;;;;;;;;;;;24.50;99.90;;;;;;5136170;27;19974;-70
2022/07/24 11:46:46;;;;;;;;;;;24.50;99.90;;;;;;5136054;27;19930;-70
2022/07/24 11:49:12;;;;;;;;;;;24.50;99.90;;;;;;5135986;27;19923;-71
2022/07/24 11:51:48;;;;;;;;;;;24.50;99.90;;;;;;5135923;27;20055;-69
2022/07/24 11:54:19;;;;;;;;;;;24.40;99.90;;;;;;5136062;27;19969;-69
2022/07/24 11:56:45;;;;;;;;;;;23.70;99.90;;;;;;5135886;27;19924;-71
2022/07/24 11:59:25;;;;;;;;;;;24.30;99.90;;;;;;5117698;27;20408;-71
2022/07/24 12:01:54;;;;;;;;;;;24.30;99.90;;;;;;5135969;27;19924;-69
2022/07/24 12:04:23;;;;;;;;;;;24.40;99.90;;;;;;5135610;27;19924;-70
2022/07/24 12:06:48;;;;;;;;;;;24.40;99.90;;;;;;5135752;27;20038;-70
2022/07/24 12:09:14;;;;;;;;;;;24.40;99.90;;;;;;5135810;27;20411;-70
2022/07/24 12:11:39;;;;;;;;;;;24.40;99.90;;;;;;5117450;27;19988;-70
2022/07/24 12:14:12;;;;;;;;;;;24.40;99.90;;;;;;5151960;27;20294;-70
2022/07/24 12:16:37;;;;;;;;;;;24.40;99.90;;;;;;5135480;27;19923;-71
2022/07/24 12:19:16;;;;;;;;;;;24.40;99.90;;;;;;5116971;27;19923;-70
2022/07/24 12:21:43;;;;;;;;;;;24.50;99.90;;;;;;5117555;27;19935;-70
2022/07/24 12:24:09;;;;;;;;;;;24.60;99.90;;;;;;5135314;27;19996;-70
2022/07/24 12:26:51;;;;;;;;;;;24.60;99.90;;;;;;5116335;27;20291;-71
2022/07/24 12:29:17;;;;;;;;;;;24.70;99.90;;;;;;5151498;27;19923;-71
2022/07/24 12:31:42;;;;;;;;;;;24.70;99.90;;;;;;5135028;27;19923;-70
2022/07/24 12:34:09;;;;;;;;;;;24.60;99.90;;;;;;5135376;27;20306;-70
2022/07/24 12:36:35;;;;;;;;;;;24.60;99.90;;;;;;5135230;27;19930;-69
2022/07/24 12:39:00;;;;;;;;;;;24.60;99.90;;;;;;5151575;27;20010;-71
2022/07/24 12:41:27;;;;;;;;;;;24.60;99.90;;;;;;5134993;27;20374;-70
2022/07/24 12:43:55;;;;;;;;;;;24.60;99.90;;;;;;5135006;27;20366;-70
2022/07/24 12:46:30;;;;;;;;;;;24.60;99.90;;;;;;5134793;27;19924;-70
2022/07/24 12:48:59;;;;;;;;;;;24.70;99.90;;;;;;5116642;27;19924;-70
2022/07/24 12:51:25;;;;;;;;;;;24.70;99.90;;;;;;5116814;27;20358;-69
2022/07/24 12:53:54;;;;;;;;;;;24.70;99.90;;;;;;5134777;27;19930;-71
2022/07/24 12:56:20;;;;;;;;;;;24.70;99.90;;;;;;5134839;27;20015;-70
2022/07/24 12:58:52;;;;;;;;;;;24.80;99.90;;;;;;5134732;27;19931;-71
2022/07/24 13:01:18;;;;;;;;;;;24.80;99.90;;;;;;5134794;27;20022;-70
2022/07/24 13:03:49;;;;;;;;;;;24.90;99.90;;;;;;5134870;27;20015;-69
2022/07/24 13:06:15;;;;;;;;;;;25.00;99.90;;;;;;5134720;27;19951;-70
2022/07/24 13:08:40;;;;;;;;;;;25.00;99.90;;;;;;5116787;27;20377;-71
2022/07/24 13:11:06;;;;;;;;;;;25.10;99.90;;;;;;5099604;27;19932;-71
2022/07/24 13:13:32;;;;;;;;;;;25.20;99.90;;;;;;5134603;27;20353;-70
2022/07/24 13:15:57;;;;;;;;;;;25.20;99.90;;;;;;5134861;28;20445;-70
2022/07/24 13:18:23;;;;;;;;;;;25.20;99.90;;;;;;5134811;28;19923;-70
2022/07/24 13:20:49;;;;;;;;;;;25.30;99.90;;;;;;5116373;28;19981;-70
2022/07/24 13:23:14;;;;;;;;;;;25.30;99.90;;;;;;5134685;28;19970;-72
2022/07/24 13:25:42;;;;;;;;;;;25.30;99.90;;;;;;5134261;28;19923;-70
2022/07/24 13:28:08;;;;;;;;;;;25.40;99.90;;;;;;5134365;28;19923;-70
2022/07/24 13:30:33;;;;;;;;;;;25.40;99.90;;;;;;5134770;28;19933;-70
2022/07/24 13:32:59;;;;;;;;;;;25.40;99.90;;;;;;5150917;27;19923;-71
2022/07/24 13:35:25;;;;;;;;;;;25.40;99.90;;;;;;5134399;28;19924;-69
2022/07/24 13:37:50;;;;;;;;;;;25.40;99.90;;;;;;5134472;28;20014;-70
2022/07/24 13:40:16;;;;;;;;;;;25.40;99.90;;;;;;5116317;28;19927;-71
2022/07/24 13:42:42;;;;;;;;;;;25.40;99.90;;;;;;5134377;28;20298;-70
2022/07/24 13:45:08;;;;;;;;;;;25.40;99.90;;;;;;5134156;28;19931;-70
2022/07/24 13:47:34;;;;;;;;;;;25.40;99.90;;;;;;5115801;28;20071;-70
2022/07/24 13:49:59;;;;;;;;;;;25.40;99.90;;;;;;5150762;27;19984;-70
2022/07/24 13:52:25;;;;;;;;;;;25.40;99.90;;;;;;5134428;28;19924;-70
2022/07/24 13:54:50;;;;;;;;;;;25.50;99.90;;;;;;5134301;28;19931;-70
2022/07/24 13:57:16;;;;;;;;;;;25.50;99.90;;;;;;5134225;28;19923;-70
2022/07/24 13:59:42;;;;;;;;;;;25.50;99.90;;;;;;5116115;28;19924;-70
2022/07/24 14:02:07;;;;;;;;;;;25.50;99.90;;;;;;5135061;27;20010;-70
2022/07/24 14:04:33;;;;;;;;;;;25.70;99.90;;;;;;5138206;27;19924;-70
2022/07/24 14:06:59;;;;;;;;;;;25.70;99.90;;;;;;5138139;27;20381;-71
2022/07/24 14:09:25;;;;;;;;;;;25.80;99.90;;;;;;5119998;27;19975;-70
2022/07/24 14:11:51;;;;;;;;;;;25.80;99.90;;;;;;5137925;27;20475;-70
2022/07/24 14:14:17;;;;;;;;;;;25.80;99.90;;;;;;5137839;27;19927;-70
2022/07/24 14:16:42;;;;;;;;;;;25.80;99.90;;;;;;5137736;27;19923;-70
2022/07/24 14:19:08;;;;;;;;;;;25.80;99.90;;;;;;5119175;27;19923;-71